Time;durP1;ratioP1;P1;durP2;ratioP2;P2;SDS_P1;SDS_P2;PMS_P1;PMS_P2;Temp;Humidity;BMP_temperature;BMP_pressure;BME280_temperature;BME280_humidity;BME280_pressure;Samples;Min_cycle;Max_cycle;Signal;HPM_P1;HPM_P2
2022/09/19 00:01:49;;;;;;;5.20;1.70;;;;;;;8.99;68.06;99875.44;10372669;28;20630;-86
2022/09/19 00:06:53;;;;;;;9.90;2.33;;;;;;;9.11;67.79;99877.38;10373181;28;20569;-86
2022/09/19 00:11:55;;;;;;;5.95;1.90;;;;;;;9.17;67.59;99887.50;10377253;28;20510;-83
2022/09/19 00:17:01;;;;;;;5.50;1.90;;;;;;;9.28;67.44;99886.91;10368195;28;20054;-83
2022/09/19 00:22:03;;;;;;;9.57;2.13;;;;;;;9.31;67.68;99886.72;10402387;28;20042;-83
2022/09/19 00:27:06;;;;;;;8.80;2.30;;;;;;;9.47;67.33;99880.56;10370454;28;20069;-83
2022/09/19 00:32:12;;;;;;;12.02;2.28;;;;;;;9.45;67.40;99885.03;10372268;28;20408;-83
2022/09/19 00:37:16;;;;;;;10.20;2.30;;;;;;;9.55;66.87;99888.81;10371114;28;20057;-83
2022/09/19 00:42:21;;;;;;;14.15;2.33;;;;;;;9.63;66.74;99891.84;10404276;28;20415;-84
2022/09/19 00:47:29;;;;;;;12.23;2.40;;;;;;;9.57;66.81;99884.34;10372634;28;20090;-83
2022/09/19 00:52:43;;;;;;;12.18;2.80;;;;;;;9.57;66.86;99893.94;10370708;28;20419;-83
2022/09/19 00:57:58;;;;;;;11.75;2.60;;;;;;;9.54;66.51;99878.47;10373225;28;20153;-82
2022/09/19 01:03:01;;;;;;;15.27;2.80;;;;;;;9.61;66.36;99901.53;10374369;28;20050;-83
2022/09/19 01:08:35;;;;;;;9.55;2.65;;;;;;;9.66;66.12;99896.09;10372193;28;20053;-83
2022/09/19 01:14:14;;;;;;;10.43;2.65;;;;;;;9.70;66.24;99909.78;10393881;28;20105;-83
2022/09/19 01:19:36;;;;;;;11.90;2.80;;;;;;;9.74;66.08;99901.72;10380457;28;20066;-83
2022/09/19 01:24:57;;;;;;;13.07;3.05;;;;;;;9.79;65.99;99906.69;10393107;28;20511;-83
2022/09/19 01:30:05;;;;;;;8.97;2.77;;;;;;;9.87;65.84;99909.69;10393350;28;20049;-84
2022/09/19 01:35:11;;;;;;;15.32;3.10;;;;;;;9.97;65.67;99908.25;10377125;28;20159;-84
2022/09/19 01:40:13;;;;;;;16.52;3.03;;;;;;;9.93;65.62;99918.00;10378673;28;20064;-85
2022/09/19 01:45:15;;;;;;;11.13;2.95;;;;;;;9.90;65.88;99918.19;10378122;28;20076;-85
2022/09/19 01:50:23;;;;;;;11.10;2.67;;;;;;;9.88;65.93;99924.44;10379693;28;20053;-84
2022/09/19 01:55:45;;;;;;;13.13;3.55;;;;;;;9.79;66.03;99925.78;10378019;28;20539;-85
2022/09/19 02:01:03;;;;;;;17.30;3.13;;;;;;;9.82;65.95;99928.22;10378769;28;20049;-84
2022/09/19 02:06:18;;;;;;;15.07;2.92;;;;;;;9.83;66.21;99944.75;10382740;28;20050;-84
2022/09/19 02:11:22;;;;;;;16.10;2.72;;;;;;;9.86;65.98;99941.94;10415067;28;20601;-84
2022/09/19 02:16:36;;;;;;;13.88;3.10;;;;;;;9.85;66.10;99940.28;10382574;28;20058;-85
2022/09/19 02:22:01;;;;;;;12.65;2.75;;;;;;;9.75;66.21;99933.91;10384135;28;20056;-85
2022/09/19 02:27:25;;;;;;;10.80;2.92;;;;;;;9.65;66.70;99941.34;10383428;28;20050;-85
2022/09/19 02:32:27;;;;;;;10.95;3.00;;;;;;;9.71;66.67;99942.84;10381934;28;20042;-85
2022/09/19 02:37:43;;;;;;;17.63;3.40;;;;;;;9.85;66.56;99948.94;10381289;28;20494;-84
2022/09/19 02:43:03;;;;;;;13.90;3.47;;;;;;;9.92;66.91;99950.28;10380732;28;20058;-85
2022/09/19 02:48:11;;;;;;;16.13;3.87;;;;;;;9.86;67.09;99955.00;10382422;28;20511;-84
2022/09/19 02:53:19;;;;;;;15.40;3.22;;;;;;;9.92;66.89;99958.13;10382655;28;20056;-84
2022/09/19 02:58:23;;;;;;;14.40;3.20;;;;;;;9.95;66.77;99967.56;10379933;28;20058;-84
2022/09/19 03:08:58;;;;;;;16.80;3.40;;;;;;;9.94;67.22;99965.88;10380121;28;20076;-85
2022/09/19 03:14:01;;;;;;;13.82;3.28;;;;;;;10.04;66.90;99969.66;10392147;28;20060;-84
2022/09/19 03:19:08;;;;;;;15.63;3.53;;;;;;;10.04;67.05;99974.88;10376951;28;20056;-84
2022/09/19 03:24:11;;;;;;;13.38;3.00;;;;;;;9.99;67.05;99969.09;10377829;28;20049;-84
2022/09/19 03:29:13;;;;;;;16.25;3.50;;;;;;;10.09;67.13;99970.25;10375352;28;20054;-77
2022/09/19 03:34:15;;;;;;;14.88;3.53;;;;;;;10.04;67.47;99983.56;10373064;28;20057;-78
2022/09/19 03:39:17;;;;;;;16.50;3.70;;;;;;;10.04;67.66;99995.78;10373241;28;20872;-78
2022/09/19 03:44:19;;;;;;;12.75;3.55;;;;;;;9.97;67.60;99997.88;10376074;28;20049;-78
2022/09/19 03:49:21;;;;;;;15.00;4.20;;;;;;;10.06;67.70;99996.53;10375822;28;20054;-78
2022/09/19 03:54:23;;;;;;;19.35;4.60;;;;;;;10.08;67.72;100007.72;10372152;28;20048;-78
2022/09/19 03:59:24;;;;;;;18.65;4.20;;;;;;;10.06;68.03;100009.59;10388811;28;20057;-78
2022/09/19 04:04:26;;;;;;;18.52;5.15;;;;;;;10.03;68.20;100022.84;10372430;28;20061;-78
2022/09/19 04:09:28;;;;;;;17.40;4.88;;;;;;;10.01;68.28;100029.94;10368827;28;20065;-78
2022/09/19 04:14:30;;;;;;;18.42;5.50;;;;;;;9.99;68.44;100027.38;10371712;28;20053;-78
2022/09/19 04:19:32;;;;;;;15.73;4.60;;;;;;;10.00;68.47;100033.44;10371782;28;20458;-78
2022/09/19 04:24:33;;;;;;;14.48;4.90;;;;;;;10.11;68.17;100038.94;10375218;28;20124;-78
2022/09/19 04:29:35;;;;;;;18.23;5.85;;;;;;;10.04;68.24;100037.59;10372957;28;20057;-78
2022/09/19 04:34:37;;;;;;;16.77;4.78;;;;;;;9.98;68.27;100037.94;10373542;28;20060;-78
2022/09/19 04:39:40;;;;;;;18.40;5.20;;;;;;;9.89;68.69;100038.44;10371814;28;20076;-78
2022/09/19 04:44:41;;;;;;;20.42;5.15;;;;;;;9.88;68.33;100050.66;10371641;28;20422;-78
2022/09/19 04:49:43;;;;;;;19.58;4.97;;;;;;;9.93;68.06;100051.22;10380384;28;20068;-78
2022/09/19 04:54:45;;;;;;;13.98;4.40;;;;;;;9.90;67.98;100053.19;10411469;28;20053;-78
2022/09/19 04:59:46;;;;;;;18.83;5.15;;;;;;;9.99;68.10;100066.56;10379942;28;20061;-79
2022/09/19 05:04:48;;;;;;;13.45;4.47;;;;;;;10.10;67.83;100073.81;10375409;28;20542;-79
2022/09/19 05:09:50;;;;;;;16.75;4.13;;;;;;;10.12;67.59;100078.03;10378835;28;20064;-79
2022/09/19 05:14:52;;;;;;;13.80;4.10;;;;;;;10.04;67.85;100082.00;10378183;28;20088;-78
2022/09/19 05:19:53;;;;;;;19.45;4.50;;;;;;;10.02;67.83;100094.31;10377449;28;20068;-78
2022/09/19 05:24:55;;;;;;;17.25;4.60;;;;;;;10.05;67.59;100084.56;10379769;28;20058;-78
2022/09/19 05:29:58;;;;;;;17.55;4.55;;;;;;;10.08;67.45;100089.59;10377788;28;20045;-78
2022/09/19 05:35:00;;;;;;;11.65;3.53;;;;;;;10.09;67.81;100099.13;10408496;28;20060;-78
2022/09/19 05:40:03;;;;;;;13.93;4.35;;;;;;;10.21;67.45;100102.84;10380407;28;20060;-78
2022/09/19 05:45:06;;;;;;;14.25;3.90;;;;;;;10.37;67.08;100104.50;10376478;28;20062;-78
2022/09/19 05:50:11;;;;;;;13.00;4.03;;;;;;;10.47;66.93;100105.69;10378045;28;20054;-78
2022/09/19 05:55:13;;;;;;;13.75;4.00;;;;;;;10.60;66.68;100118.06;10410073;28;20053;-78
2022/09/19 06:00:14;;;;;;;16.17;4.88;;;;;;;10.82;66.23;100108.91;10374314;28;20049;-78
2022/09/19 06:05:16;;;;;;;15.43;4.63;;;;;;;10.95;65.89;100120.31;10376204;28;20061;-78
2022/09/19 06:10:18;;;;;;;15.05;4.40;;;;;;;10.98;65.59;100122.78;10375568;28;20046;-78
2022/09/19 06:15:20;;;;;;;15.10;3.80;;;;;;;10.98;65.71;100117.53;10374608;28;20503;-78
2022/09/19 06:20:22;;;;;;;11.93;3.75;;;;;;;10.98;65.62;100130.63;10376274;28;20057;-80
2022/09/19 06:25:25;;;;;;;9.88;3.45;;;;;;;11.04;65.64;100138.16;10374580;28;20504;-79
2022/09/19 06:30:28;;;;;;;13.20;4.15;;;;;;;11.19;64.87;100134.59;10376622;28;20064;-80
2022/09/19 06:35:31;;;;;;;15.18;3.80;;;;;;;11.31;64.63;100143.53;10376768;28;20054;-80
2022/09/19 06:40:34;;;;;;;12.43;3.88;;;;;;;11.57;64.50;100147.19;10372250;28;20069;-79
2022/09/19 06:45:40;;;;;;;10.15;3.00;;;;;;;11.81;63.85;100149.19;10373499;28;20069;-79
2022/09/19 06:50:48;;;;;;;16.40;3.75;;;;;;;12.03;63.40;100144.28;10372827;28;20049;-79
2022/09/19 06:55:50;;;;;;;12.60;3.30;;;;;;;12.17;63.16;100146.06;10370030;28;20064;-79
2022/09/19 07:00:53;;;;;;;10.95;3.60;;;;;;;12.23;63.06;100161.41;10373025;28;20049;-79
2022/09/19 07:05:59;;;;;;;13.90;3.50;;;;;;;12.28;62.49;100158.47;10377256;28;20144;-79
2022/09/19 07:11:01;;;;;;;16.15;3.95;;;;;;;12.10;62.59;100160.50;10370369;28;20058;-80
2022/09/19 07:16:04;;;;;;;12.77;3.28;;;;;;;11.94;62.87;100167.63;10373837;28;20958;-79
2022/09/19 07:21:05;;;;;;;14.82;4.15;;;;;;;12.27;62.36;100169.94;10372652;28;20049;-79
2022/09/19 07:26:07;;;;;;;14.00;3.50;;;;;;;12.52;61.80;100178.78;10371515;28;21078;-80
2022/09/19 07:31:09;;;;;;;11.85;3.30;;;;;;;12.74;61.31;100176.47;10371720;28;20759;-80
2022/09/19 07:36:11;;;;;;;14.38;3.25;;;;;;;12.60;62.03;100181.75;10373094;28;20057;-79
2022/09/19 07:41:13;;;;;;;10.25;2.78;;;;;;;12.64;62.18;100187.69;10390471;28;20060;-79
2022/09/19 07:46:17;;;;;;;6.95;2.60;;;;;;;12.50;62.45;100201.66;10373034;28;20061;-80
2022/09/19 07:51:20;;;;;;;11.68;2.90;;;;;;;12.69;61.63;100207.44;10404614;28;20046;-80
2022/09/19 07:56:25;;;;;;;13.55;3.10;;;;;;;12.88;61.39;100222.84;10372593;28;20057;-79
2022/09/19 08:01:27;;;;;;;10.65;2.88;;;;;;;12.90;61.15;100220.97;10375850;28;20399;-79
2022/09/19 08:06:29;;;;;;;11.52;3.25;;;;;;;12.78;61.83;100232.25;10372363;28;20050;-79
2022/09/19 08:11:35;;;;;;;13.55;3.03;;;;;;;13.22;61.22;100232.81;10371314;28;20499;-79
2022/09/19 08:16:37;;;;;;;11.05;2.90;;;;;;;13.50;60.28;100239.72;10370179;28;20135;-81
2022/09/19 08:21:39;;;;;;;8.65;2.72;;;;;;;14.08;59.78;100234.84;10372010;28;20517;-81
2022/09/19 08:26:42;;;;;;;10.13;2.70;;;;;;;14.20;59.76;100234.00;10378614;28;20057;-84
2022/09/19 08:31:44;;;;;;;7.93;2.60;;;;;;;14.43;58.94;100229.75;10379511;28;20452;-85
2022/09/19 08:36:46;;;;;;;6.97;2.45;;;;;;;14.37;59.00;100246.78;10379439;28;20057;-85
2022/09/19 08:42:05;;;;;;;8.35;2.78;;;;;;;14.06;58.77;100247.25;10382007;28;20053;-83
2022/09/19 08:47:18;;;;;;;10.45;2.67;;;;;;;13.87;59.06;100248.59;10373828;28;20046;-82
2022/09/19 08:52:39;;;;;;;7.97;2.50;;;;;;;13.85;58.39;100253.97;10379886;28;20056;-81
2022/09/19 08:57:58;;;;;;;13.10;3.33;;;;;;;13.71;59.42;100248.81;10377286;28;20506;-81
2022/09/19 09:03:20;;;;;;;11.52;3.42;;;;;;;13.75;59.12;100258.19;10379235;28;20125;-82
2022/09/19 09:08:38;;;;;;;12.95;3.50;;;;;;;14.04;59.26;100257.03;10361359;28;20064;-81
2022/09/19 09:14:09;;;;;;;12.60;3.55;;;;;;;13.87;59.21;100252.09;10390819;28;20050;-82
2022/09/19 09:19:36;;;;;;;15.73;3.28;;;;;;;14.15;59.21;100261.53;10333365;28;20795;-81
2022/09/19 09:24:47;;;;;;;12.80;3.33;;;;;;;14.38;58.69;100256.38;10380966;28;20045;-82
2022/09/19 09:30:09;;;;;;;17.65;3.45;;;;;;;14.51;57.71;100257.22;10379606;28;20053;-81
2022/09/19 09:35:15;;;;;;;;;;;;;;;14.67;58.06;100253.50;10367886;28;20049;-82
2022/09/19 09:45:59;;;;;;;13.63;2.88;;;;;;;15.12;56.21;100263.34;10367960;28;20511;-82
2022/09/19 09:51:18;;;;;;;10.95;2.72;;;;;;;15.17;55.55;100261.22;10369447;28;20396;-83
2022/09/19 09:56:49;;;;;;;11.55;2.83;;;;;;;14.78;56.08;100261.50;10364716;28;20427;-82
2022/09/19 10:07:33;;;;;;;11.98;3.20;;;;;;;15.31;56.68;100266.31;10368034;28;20491;-82
2022/09/19 10:12:54;;;;;;;13.25;2.95;;;;;;;15.23;56.41;100261.59;10370389;28;20042;-82
2022/09/19 10:18:09;;;;;;;13.15;3.17;;;;;;;15.83;55.76;100250.94;10385389;28;20068;-81
2022/09/19 10:23:18;;;;;;;11.53;4.03;;;;;;;16.41;54.81;100249.03;10387709;28;20131;-82
2022/09/19 10:28:37;;;;;;;11.73;3.40;;;;;;;16.30;52.29;100246.41;10372716;28;20504;-82
2022/09/19 10:33:45;;;;;;;13.23;3.00;;;;;;;15.79;53.19;100244.22;10373065;28;20084;-82
2022/09/19 10:38:54;;;;;;;14.07;2.92;;;;;;;15.46;53.79;100253.78;10365303;28;20062;-82
2022/09/19 10:44:09;;;;;;;12.98;2.80;;;;;;;15.56;52.80;100253.00;10399911;28;20869;-82
2022/09/19 10:49:25;;;;;;;11.40;2.45;;;;;;;15.41;53.08;100247.06;10370659;28;20523;-82
2022/09/19 11:00:55;;;;;;;12.82;2.90;;;;;;;15.95;51.92;100244.72;10371431;28;20041;-82
2022/09/19 11:06:16;;;;;;;12.27;2.60;;;;;;;16.05;52.38;100232.50;10370244;28;20050;-81
2022/09/19 11:11:46;;;;;;;11.15;2.42;;;;;;;15.84;52.91;100236.78;10384415;28;20519;-82
2022/09/19 11:17:10;;;;;;;12.30;2.40;;;;;;;15.75;53.27;100234.88;10368723;28;20215;-82
2022/09/19 11:22:38;;;;;;;13.10;2.75;;;;;;;16.23;51.84;100236.34;10389051;28;20597;-82
2022/09/19 11:28:10;;;;;;;11.48;2.50;;;;;;;16.21;50.87;100242.69;10382870;28;20185;-83
2022/09/19 11:33:38;;;;;;;10.20;2.30;;;;;;;16.59;50.93;100243.19;10364584;28;20050;-82
2022/09/19 11:39:27;;;;;;;13.18;2.78;;;;;;;16.88;51.02;100231.13;10381610;28;20504;-81
2022/09/19 11:45:05;;;;;;;9.15;2.20;;;;;;;16.83;50.46;100243.03;10367175;28;20046;-82
2022/09/19 11:50:49;;;;;;;7.88;2.20;;;;;;;16.32;50.05;100244.50;10366968;28;20056;-82
2022/09/19 11:56:13;;;;;;;8.15;1.98;;;;;;;16.31;51.21;100250.72;10400575;28;20061;-83
2022/09/19 12:01:47;;;;;;;7.10;2.00;;;;;;;16.26;50.12;100247.63;10374703;28;20099;-83
2022/09/19 12:07:25;;;;;;;6.43;1.88;;;;;;;16.79;49.29;100236.31;10358501;28;21043;-83
2022/09/19 12:12:36;;;;;;;9.00;2.15;;;;;;;17.13;49.42;100227.31;10384529;28;20725;-82
2022/09/19 12:17:44;;;;;;;5.72;1.90;;;;;;;17.33;48.37;100229.19;10367475;28;20160;-82
2022/09/19 12:28:44;;;;;;;11.25;2.10;;;;;;;17.13;48.43;100211.47;10362547;28;20054;-83
2022/09/19 12:34:07;;;;;;;8.98;2.10;;;;;;;16.90;47.43;100205.41;10369045;28;20053;-82
2022/09/19 12:39:20;;;;;;;10.15;2.28;;;;;;;16.81;48.49;100210.63;10366185;28;20574;-83
2022/09/19 12:44:52;;;;;;;9.65;2.10;;;;;;;17.08;48.19;100189.84;10362559;28;20046;-83
2022/09/19 12:50:03;;;;;;;6.82;1.98;;;;;;;17.57;47.16;100189.25;10379166;28;20411;-82
2022/09/19 12:55:34;;;;;;;7.07;1.90;;;;;;;17.49;46.59;100189.91;10357936;28;20057;-82
2022/09/19 13:00:48;;;;;;;7.63;1.90;;;;;;;17.79;46.37;100184.66;10361439;28;20050;-82
2022/09/19 13:06:00;;;;;;;7.88;1.88;;;;;;;18.27;46.06;100178.78;10356466;28;20502;-83
2022/09/19 13:11:30;;;;;;;9.18;1.85;;;;;;;18.31;44.71;100177.53;10385564;28;20056;-83
2022/09/19 13:23:29;;;;;;;8.68;1.90;;;;;;;18.34;45.37;100185.22;10364922;28;20057;-83
2022/09/19 13:27:24;;;;;;;8.05;1.98;;;;;;;17.09;49.52;100210.03;10360975;28;20610;-82
2022/09/19 13:32:53;;;;;;;6.60;1.98;;;;;;;15.88;50.57;100235.59;10372412;28;20045;-82
2022/09/19 13:38:15;;;;;;;5.82;2.10;;;;;;;14.97;53.93;100246.88;10357238;28;20045;-83
2022/09/19 13:43:17;;;;;;;5.95;1.50;;;;;;;15.09;54.58;100248.59;10370900;28;20046;-82
2022/09/19 13:48:34;;;;;;;3.53;1.40;;;;;;;15.24;54.73;100238.75;10361344;28;20065;-82
2022/09/19 13:53:44;;;;;;;4.38;1.20;;;;;;;15.47;54.02;100237.84;10386454;28;20061;-82
2022/09/19 13:58:48;;;;;;;4.27;1.40;;;;;;;15.23;54.66;100237.03;10382462;28;20066;-82
2022/09/19 14:04:52;;;;;;;6.53;1.42;;;;;;;15.13;53.67;100228.13;10367508;28;20053;-82
2022/09/19 14:09:34;;;;;;;3.45;1.25;;;;;;;14.99;54.16;100229.16;10367981;28;20045;-83
2022/09/19 14:15:00;;;;;;;4.55;1.25;;;;;;;15.39;54.62;100227.03;10365559;28;20054;-82
2022/09/19 14:20:31;;;;;;;6.25;1.60;;;;;;;15.79;53.55;100217.84;10389517;28;20152;-82
2022/09/19 14:25:34;;;;;;;4.75;1.45;;;;;;;16.31;53.22;100213.78;10359235;28;20046;-84
2022/09/19 14:31:15;;;;;;;4.88;1.40;;;;;;;16.65;52.45;100195.16;10373980;28;20053;-83
2022/09/19 14:37:02;;;;;;;5.75;1.50;;;;;;;16.66;51.93;100212.69;10368623;28;20065;-83
2022/09/19 14:42:24;;;;;;;8.52;1.80;;;;;;;16.68;51.35;100213.41;10275058;28;20608;-83
2022/09/19 14:47:41;;;;;;;6.13;1.33;;;;;;;16.57;51.58;100213.41;10292804;28;20081;-83
2022/09/19 14:52:57;;;;;;;3.92;1.48;;;;;;;16.07;52.63;100243.78;10303926;28;20432;-83
2022/09/19 14:57:59;;;;;;;3.47;1.40;;;;;;;15.25;51.75;100269.38;10352771;28;20061;-82
2022/09/19 15:03:10;;;;;;;9.23;2.00;;;;;;;14.76;54.10;100268.66;10370806;28;20642;-82
2022/09/19 15:08:30;;;;;;;6.45;1.80;;;;;;;14.28;54.68;100257.97;10376359;28;20065;-83
2022/09/19 15:13:33;;;;;;;4.63;1.45;;;;;;;13.92;54.37;100255.25;10388938;28;20423;-82
2022/09/19 15:18:40;;;;;;;7.45;1.88;;;;;;;13.77;54.91;100251.03;10367799;28;20053;-82
2022/09/19 15:23:44;;;;;;;5.43;1.42;;;;;;;13.76;55.12;100239.66;10374216;28;20045;-82
2022/09/19 15:29:03;;;;;;;5.75;1.80;;;;;;;13.91;54.90;100252.72;10406798;28;20054;-81
2022/09/19 15:34:19;;;;;;;3.55;1.35;;;;;;;13.89;54.68;100254.59;10405099;28;20419;-81
2022/09/19 15:39:21;;;;;;;3.33;1.40;;;;;;;13.85;55.25;100255.75;10372116;28;20045;-81
2022/09/19 15:44:25;;;;;;;5.90;1.70;;;;;;;13.90;55.35;100251.03;10376159;28;20060;-81
2022/09/19 15:49:40;;;;;;;2.97;1.30;;;;;;;13.80;55.14;100242.91;10407299;28;20423;-81
2022/09/19 15:54:50;;;;;;;4.43;1.75;;;;;;;13.74;55.97;100240.72;10376918;28;20073;-82
2022/09/19 15:59:52;;;;;;;5.70;1.60;;;;;;;13.59;55.31;100239.97;10376080;28;20057;-82
2022/09/19 16:05:17;;;;;;;3.10;1.40;;;;;;;13.34;56.32;100249.53;10369908;28;20061;-82
2022/09/19 16:10:21;;;;;;;4.22;1.40;;;;;;;13.30;55.93;100245.44;10371711;28;20056;-82
2022/09/19 16:15:44;;;;;;;6.50;1.65;;;;;;;13.18;56.91;100252.34;10372853;28;20057;-82
2022/09/19 16:20:59;;;;;;;4.97;1.60;;;;;;;13.28;56.54;100247.31;10366993;28;20054;-82
2022/09/19 16:26:02;;;;;;;7.55;1.60;;;;;;;13.33;56.50;100240.81;10369656;28;20049;-82
2022/09/19 16:31:22;;;;;;;6.43;2.40;;;;;;;13.19;56.65;100259.28;10371539;28;20054;-82
2022/09/19 16:36:25;;;;;;;6.85;1.90;;;;;;;13.12;56.47;100267.66;10371605;28;20057;-82
2022/09/19 16:41:33;;;;;;;6.07;1.50;;;;;;;13.06;56.66;100262.81;10373730;28;20065;-82
2022/09/19 16:46:34;;;;;;;5.97;1.70;;;;;;;12.86;56.96;100267.53;10394551;28;20061;-82
2022/09/19 16:51:36;;;;;;;8.00;1.63;;;;;;;12.77;57.40;100265.50;10379824;28;20059;-81
2022/09/19 16:56:40;;;;;;;5.47;1.60;;;;;;;12.62;57.50;100274.34;10380677;28;20104;-82
2022/09/19 17:01:42;;;;;;;6.40;1.90;;;;;;;12.55;58.16;100280.94;10379849;28;20052;-83
2022/09/19 17:06:50;;;;;;;7.68;1.83;;;;;;;12.38;58.39;100280.25;10379584;28;20045;-82
2022/09/19 17:11:53;;;;;;;5.82;1.60;;;;;;;12.29;58.08;100280.84;10395193;28;20163;-82
2022/09/19 17:16:56;;;;;;;9.30;1.70;;;;;;;12.31;58.45;100285.06;10377094;28;20054;-82
2022/09/19 17:21:58;;;;;;;8.95;1.83;;;;;;;12.26;58.32;100281.84;10377617;28;20488;-82
2022/09/19 17:27:00;;;;;;;5.90;1.80;;;;;;;12.25;58.79;100290.66;10376349;28;20082;-82
2022/09/19 17:32:05;;;;;;;6.07;1.67;;;;;;;12.13;58.47;100296.63;10373552;28;20053;-83
2022/09/19 17:37:07;;;;;;;6.35;1.33;;;;;;;11.96;59.04;100295.03;10375824;28;20499;-83
2022/09/19 17:42:12;;;;;;;7.25;1.90;;;;;;;11.84;59.08;100295.75;10375722;28;20050;-82
2022/09/19 17:47:14;;;;;;;6.75;2.10;;;;;;;11.80;59.27;100293.41;10373957;28;20576;-82
2022/09/19 17:52:36;;;;;;;7.32;2.03;;;;;;;11.69;59.65;100301.03;10373527;28;20054;-82
2022/09/19 17:57:38;;;;;;;7.07;2.60;;;;;;;11.63;59.77;100298.78;10374015;28;20046;-82
2022/09/19 18:08:04;;;;;;;8.05;2.30;;;;;;;11.54;60.41;100315.03;10376333;28;20109;-82
2022/09/19 18:13:08;;;;;;;13.18;4.15;;;;;;;11.51;60.63;100320.44;10370036;28;20049;-81
2022/09/19 18:18:13;;;;;;;7.13;2.47;;;;;;;11.60;60.61;100326.00;10401844;28;20499;-82
2022/09/19 18:23:15;;;;;;;9.95;2.90;;;;;;;11.70;60.74;100326.31;10374468;28;20526;-82
2022/09/19 18:28:17;;;;;;;7.22;2.90;;;;;;;11.68;61.50;100336.88;10372527;28;20073;-82
2022/09/19 18:33:20;;;;;;;8.23;3.25;;;;;;;11.54;60.93;100346.47;10368959;28;20041;-82
2022/09/19 18:38:22;;;;;;;10.40;2.95;;;;;;;11.53;60.70;100337.75;10372438;28;20053;-82
2022/09/19 18:43:23;;;;;;;9.45;2.63;;;;;;;11.46;61.57;100338.22;10369785;28;20062;-82
2022/09/19 18:48:26;;;;;;;8.27;2.53;;;;;;;11.37;61.76;100338.72;10369465;28;20060;-82
2022/09/19 18:53:30;;;;;;;6.07;2.00;;;;;;;11.32;62.16;100333.72;10364017;28;20065;-82
2022/09/19 18:58:32;;;;;;;9.27;2.30;;;;;;;11.18;62.30;100337.13;10370587;28;20064;-82
2022/09/19 19:03:37;;;;;;;9.57;2.03;;;;;;;11.10;62.22;100344.56;10370539;28;20535;-81
2022/09/19 19:08:41;;;;;;;8.50;2.20;;;;;;;11.06;62.54;100344.81;10371876;28;20559;-82
2022/09/19 19:13:43;;;;;;;7.57;2.00;;;;;;;11.00;62.46;100348.59;10371705;28;20420;-81
2022/09/19 19:18:50;;;;;;;12.35;2.33;;;;;;;11.04;62.49;100362.38;10372843;28;20064;-82
2022/09/19 19:23:56;;;;;;;12.40;2.65;;;;;;;11.09;62.35;100360.38;10372168;28;20126;-82
2022/09/19 19:28:59;;;;;;;5.90;1.90;;;;;;;11.18;61.68;100365.94;10370151;28;20054;-82
2022/09/19 19:34:02;;;;;;;7.93;1.92;;;;;;;11.34;61.64;100358.06;10368333;28;20046;-82
2022/09/19 19:39:08;;;;;;;9.05;2.17;;;;;;;11.47;61.18;100350.34;10370569;28;20604;-82
2022/09/19 19:44:10;;;;;;;13.50;3.22;;;;;;;11.45;61.00;100360.06;10372612;28;20046;-82
2022/09/19 19:49:12;;;;;;;12.00;2.65;;;;;;;11.32;62.04;100358.16;10366211;28;20071;-82
2022/09/19 19:54:14;;;;;;;9.20;3.00;;;;;;;11.18;62.11;100363.31;10369207;28;20076;-82
2022/09/19 19:59:16;;;;;;;11.13;2.35;;;;;;;11.03;61.96;100364.09;10374632;28;20415;-82
2022/09/19 20:04:17;;;;;;;9.57;3.30;;;;;;;10.95;62.51;100365.47;10363480;28;20065;-81
2022/09/19 20:09:19;;;;;;;11.07;3.25;;;;;;;10.92;62.73;100366.47;10379520;28;20057;-82
2022/09/19 20:14:21;;;;;;;13.13;6.30;;;;;;;10.86;62.94;100358.97;10370722;28;20415;-82
2022/09/19 20:19:23;;;;;;;50.13;25.35;;;;;;;10.87;63.07;100365.88;10387256;28;20054;-79
2022/09/19 20:24:24;;;;;;;10.48;3.47;;;;;;;10.90;62.91;100373.56;10385391;28;20423;-79
2022/09/19 20:29:26;;;;;;;10.60;3.67;;;;;;;10.92;63.08;100379.56;10378841;28;20056;-79
2022/09/19 20:34:28;;;;;;;10.60;2.80;;;;;;;10.80;63.37;100374.16;10383068;28;20054;-79
2022/09/19 20:39:30;;;;;;;8.45;3.40;;;;;;;10.53;64.08;100381.69;10383786;28;20866;-79
2022/09/19 20:44:32;;;;;;;9.07;3.10;;;;;;;10.50;64.24;100380.06;10417573;28;20389;-79
2022/09/19 20:49:34;;;;;;;9.50;3.10;;;;;;;10.44;64.49;100387.38;10384487;28;20076;-79
2022/09/19 20:54:35;;;;;;;11.48;4.32;;;;;;;10.37;64.44;100384.25;10384008;28;20049;-79
2022/09/19 20:59:37;;;;;;;11.77;3.80;;;;;;;10.22;64.80;100386.78;10384669;28;20053;-78
2022/09/19 21:04:39;;;;;;;13.63;4.05;;;;;;;10.11;65.17;100382.13;10382576;28;20065;-79
2022/09/19 21:09:41;;;;;;;9.20;3.28;;;;;;;10.09;65.36;100383.97;10386112;28;20076;-79
2022/09/19 21:14:43;;;;;;;8.13;3.13;;;;;;;10.07;64.88;100390.19;10383462;28;20053;-78
2022/09/19 21:20:04;;;;;;;8.52;3.15;;;;;;;9.95;65.30;100393.44;10385846;28;20659;-78
2022/09/19 21:25:06;;;;;;;10.30;2.97;;;;;;;9.95;65.56;100401.25;10398898;28;20141;-78
2022/09/19 21:30:09;;;;;;;8.68;2.78;;;;;;;9.91;65.43;100394.50;10393874;28;20056;-78
2022/09/19 21:35:11;;;;;;;13.82;3.25;;;;;;;9.91;65.84;100402.34;10377111;28;20577;-78
2022/09/19 21:40:12;;;;;;;10.80;3.30;;;;;;;10.01;65.61;100408.81;10378090;28;20053;-78
2022/09/19 21:45:14;;;;;;;8.93;3.00;;;;;;;10.14;65.75;100400.25;10376915;28;20053;-79
2022/09/19 21:50:16;;;;;;;18.23;3.20;;;;;;;10.26;65.62;100402.25;10378148;28;20084;-78
2022/09/19 21:55:17;;;;;;;12.85;3.67;;;;;;;10.27;65.13;100405.72;10376589;28;20045;-78
2022/09/19 22:00:19;;;;;;;8.07;2.95;;;;;;;10.20;65.32;100409.53;10377407;28;20058;-79
2022/09/19 22:05:21;;;;;;;8.27;2.40;;;;;;;10.21;65.73;100411.25;10390841;28;20054;-79
2022/09/19 22:10:22;;;;;;;8.30;2.40;;;;;;;10.25;65.80;100412.78;10375815;28;20392;-78
2022/09/19 22:15:24;;;;;;;8.90;2.10;;;;;;;10.31;65.63;100417.72;10374228;28;20049;-79
2022/09/19 22:20:26;;;;;;;5.68;2.00;;;;;;;10.32;65.37;100422.00;10376647;28;20411;-79
2022/09/19 22:25:53;;;;;;;7.68;2.13;;;;;;;10.20;65.54;100413.00;10373054;28;20057;-78
2022/09/19 22:30:59;;;;;;;8.85;2.00;;;;;;;10.18;65.45;100419.22;10405966;28;20424;-78
2022/09/19 22:36:06;;;;;;;8.15;2.33;;;;;;;10.10;65.71;100418.78;10375395;28;20045;-79
2022/09/19 22:41:11;;;;;;;9.50;2.42;;;;;;;10.02;65.52;100423.53;10375736;28;20054;-79
2022/09/19 22:46:15;;;;;;;8.57;2.30;;;;;;;9.88;65.70;100426.00;10377422;28;20060;-79
2022/09/19 22:51:21;;;;;;;11.40;2.50;;;;;;;9.81;66.14;100428.06;10376553;28;20041;-78
2022/09/19 22:56:28;;;;;;;7.35;2.17;;;;;;;9.85;66.44;100426.97;10365141;28;20507;-79
2022/09/19 23:01:31;;;;;;;9.30;2.38;;;;;;;9.77;66.64;100431.72;10372927;28;20054;-79
2022/09/19 23:06:38;;;;;;;8.15;2.38;;;;;;;9.68;67.05;100434.81;10371649;28;20061;-79
2022/09/19 23:11:41;;;;;;;7.35;2.30;;;;;;;9.58;67.17;100429.13;10372929;28;20054;-80
2022/09/19 23:16:44;;;;;;;8.07;2.13;;;;;;;9.61;66.96;100429.00;10371757;28;20052;-79
2022/09/19 23:21:50;;;;;;;8.38;2.10;;;;;;;9.70;66.58;100421.66;10372546;28;20053;-79
2022/09/19 23:26:53;;;;;;;9.50;2.13;;;;;;;9.79;66.43;100427.28;10370353;28;20071;-79
2022/09/19 23:31:55;;;;;;;10.60;2.55;;;;;;;9.81;66.22;100422.81;10372885;28;20049;-79
2022/09/19 23:36:57;;;;;;;10.52;2.30;;;;;;;9.80;66.23;100422.91;10371405;28;20049;-79
2022/09/19 23:41:59;;;;;;;10.93;2.20;;;;;;;9.80;66.15;100422.91;10372505;28;20658;-79
2022/09/19 23:47:00;;;;;;;10.90;2.40;;;;;;;9.70;66.29;100434.72;10371001;28;20061;-80
2022/09/19 23:52:02;;;;;;;11.20;2.65;;;;;;;9.64;66.15;100439.31;10370904;28;20419;-79
2022/09/19 23:57:03;;;;;;;8.45;2.28;;;;;;;9.61;66.38;100434.22;10367752;28;20056;-77
